Time;durP1;ratioP1;P1;durP2;ratioP2;P2;SDS_P1;SDS_P2;PMS_P1;PMS_P2;Temp;Humidity;BMP_temperature;BMP_pressure;BME280_temperature;BME280_humidity;BME280_pressure;Samples;Min_cycle;Max_cycle;Signal;HPM_P1;HPM_P2
2021/12/17 00:05:01;;;;;;;73.45;28.67;;;;;;;;;;6209633;23;20017;-83
2021/12/17 00:07:28;;;;;;;70.40;27.75;;;;;;;;;;6209848;23;20062;-83
2021/12/17 00:09:55;;;;;;;88.57;28.95;;;;;;;;;;6184603;23;20515;-83
2021/12/17 00:12:23;;;;;;;88.05;30.55;;;;;;;;;;6184688;23;20560;-83
2021/12/17 00:14:50;;;;;;;85.30;29.15;;;;;;;;;;6209583;23;20048;-83
2021/12/17 00:17:21;;;;;;;86.88;29.08;;;;;;;;;;6209569;23;20020;-83
2021/12/17 00:20:28;;;;;;;130.60;34.13;;;;;;;;;;6209634;23;20078;-83
2021/12/17 00:50:01;;;;;;;81.90;29.77;;;;;;;;;;6209344;23;20585;-82
2021/12/17 00:52:30;;;;;;;67.22;25.80;;;;;;;;;;6209677;23;20052;-83
2021/12/17 00:54:56;;;;;;;82.13;28.35;;;;;;;;;;6209270;23;20016;-83
2021/12/17 00:57:26;;;;;;;123.30;33.28;;;;;;;;;;6184196;23;20090;-83
2021/12/17 00:59:54;;;;;;;112.97;32.50;;;;;;;;;;6209318;23;20052;-82
2021/12/17 01:02:25;;;;;;;106.47;32.00;;;;;;;;;;6207882;23;20170;-83
2021/12/17 01:04:52;;;;;;;76.75;29.42;;;;;;;;;;6209241;23;20031;-83
2021/12/17 01:07:20;;;;;;;129.43;35.72;;;;;;;;;;6183846;23;20012;-83
2021/12/17 01:09:46;;;;;;;127.82;35.30;;;;;;;;;;6209015;23;20013;-83
2021/12/17 01:12:13;;;;;;;77.88;28.38;;;;;;;;;;6209154;23;20017;-83
2021/12/17 01:14:40;;;;;;;106.78;32.63;;;;;;;;;;6209008;23;20048;-83
2021/12/17 01:17:07;;;;;;;119.32;34.70;;;;;;;;;;6209039;23;20398;-82
2021/12/17 01:25:09;;;;;;;129.85;38.15;;;;;;;;;;6208958;23;20020;-83
2021/12/17 01:36:03;;;;;;;131.10;37.17;;;;;;;;;;6159056;23;20455;-83
2021/12/17 01:43:59;;;;;;;125.78;36.08;;;;;;;;;;6208633;23;20214;-83
2021/12/17 01:46:26;;;;;;;121.95;34.30;;;;;;;;;;6210381;23;20075;-82
2021/12/17 01:59:56;;;;;;;86.78;28.85;;;;;;;;;;6208993;23;20082;-83
2021/12/17 02:02:22;;;;;;;83.80;26.00;;;;;;;;;;6208822;23;20021;-83
2021/12/17 02:04:48;;;;;;;70.28;24.65;;;;;;;;;;6183308;23;20021;-83
2021/12/17 02:07:14;;;;;;;77.68;26.25;;;;;;;;;;6208431;23;20032;-82
2021/12/17 02:20:57;;;;;;;88.32;27.35;;;;;;;;;;6208403;23;20028;-82
2021/12/17 02:31:35;;;;;;;43.45;19.60;;;;;;;;;;6208343;23;20084;-82
2021/12/17 02:34:07;;;;;;;53.20;21.98;;;;;;;;;;6208213;23;20009;-82
2021/12/17 02:36:35;;;;;;;48.92;20.30;;;;;;;;;;6208449;23;20023;-81
2021/12/17 02:39:23;;;;;;;109.68;28.70;;;;;;;;;;6208341;23;20020;-82
2021/12/17 02:45:32;;;;;;;50.40;20.02;;;;;;;;;;6208191;23;20020;-82
2021/12/17 02:47:37;;;;;;;41.13;18.92;;;;;;;;;;6208081;23;20354;-82
2021/12/17 02:50:04;;;;;;;51.38;21.70;;;;;;;;;;6208226;23;20016;-82
2021/12/17 02:52:31;;;;;;;45.13;19.95;;;;;;;;;;6208499;23;20095;-82
2021/12/17 02:54:58;;;;;;;51.33;20.48;;;;;;;;;;6208310;23;20025;-82
2021/12/17 02:57:25;;;;;;;45.25;18.67;;;;;;;;;;6208099;23;20035;-81
2021/12/17 02:59:51;;;;;;;42.80;17.88;;;;;;;;;;6208057;23;20017;-82
2021/12/17 03:02:18;;;;;;;64.50;20.55;;;;;;;;;;6207221;23;20066;-82
2021/12/17 03:04:44;;;;;;;39.38;16.92;;;;;;;;;;6207930;23;20319;-82
2021/12/17 03:07:12;;;;;;;53.33;20.80;;;;;;;;;;6208048;23;20009;-82
2021/12/17 03:10:00;;;;;;;36.78;16.42;;;;;;;;;;6208035;23;20024;-81
2021/12/17 03:12:33;;;;;;;95.05;26.20;;;;;;;;;;6208047;23;20243;-81
2021/12/17 03:23:27;;;;;;;46.13;16.23;;;;;;;;;;6208290;23;20079;-82
2021/12/17 03:25:53;;;;;;;56.78;19.83;;;;;;;;;;6207983;23;20021;-81
2021/12/17 03:28:19;;;;;;;40.53;17.45;;;;;;;;;;6207923;23;20009;-81
2021/12/17 03:30:46;;;;;;;49.97;19.27;;;;;;;;;;6208074;23;20012;-81
2021/12/17 03:33:12;;;;;;;62.17;18.98;;;;;;;;;;6208027;23;20017;-81
2021/12/17 03:35:38;;;;;;;45.35;19.25;;;;;;;;;;6207785;23;20020;-82
2021/12/17 03:38:05;;;;;;;48.47;17.52;;;;;;;;;;6207684;23;20395;-82
2021/12/17 03:40:32;;;;;;;39.47;17.33;;;;;;;;;;6207969;23;20043;-81
2021/12/17 03:43:03;;;;;;;68.63;21.33;;;;;;;;;;6207886;23;20023;-81
2021/12/17 03:45:29;;;;;;;31.77;15.98;;;;;;;;;;6207758;23;20450;-81
2021/12/17 03:47:55;;;;;;;86.80;23.23;;;;;;;;;;6182766;23;20017;-82
2021/12/17 03:50:21;;;;;;;46.15;17.13;;;;;;;;;;6207825;23;20012;-81
2021/12/17 03:52:47;;;;;;;71.18;20.05;;;;;;;;;;6207757;23;20023;-82
2021/12/17 03:55:14;;;;;;;36.75;16.40;;;;;;;;;;6207786;23;20016;-81
2021/12/17 03:57:40;;;;;;;43.88;16.27;;;;;;;;;;6207663;23;20027;-81
2021/12/17 04:00:07;;;;;;;35.05;14.93;;;;;;;;;;6182695;23;20020;-81
2021/12/17 04:02:33;;;;;;;48.92;16.67;;;;;;;;;;6207650;23;20067;-81
2021/12/17 04:04:59;;;;;;;35.13;14.75;;;;;;;;;;6207536;23;20028;-81
2021/12/17 04:07:25;;;;;;;41.65;15.82;;;;;;;;;;6207715;23;20193;-81
2021/12/17 04:09:51;;;;;;;41.95;15.30;;;;;;;;;;6207595;23;20092;-82
2021/12/17 04:12:20;;;;;;;35.08;14.63;;;;;;;;;;6182704;23;20303;-81
2021/12/17 04:14:48;;;;;;;37.05;15.68;;;;;;;;;;6209327;23;20024;-81
2021/12/17 04:17:22;;;;;;;32.40;13.00;;;;;;;;;;6207687;23;20434;-81
2021/12/17 04:19:48;;;;;;;30.90;13.35;;;;;;;;;;6208485;23;20043;-81
2021/12/17 04:22:14;;;;;;;38.83;15.57;;;;;;;;;;6184372;23;20008;-81
2021/12/17 04:24:40;;;;;;;70.28;18.35;;;;;;;;;;6209317;23;20017;-81
2021/12/17 04:27:07;;;;;;;69.95;20.13;;;;;;;;;;6209400;23;20013;-81
2021/12/17 04:29:39;;;;;;;69.25;18.85;;;;;;;;;;6209547;23;20009;-82
2021/12/17 04:32:05;;;;;;;33.30;13.95;;;;;;;;;;6209505;23;20305;-82
2021/12/17 04:34:31;;;;;;;45.63;16.60;;;;;;;;;;6209429;23;20032;-82
2021/12/17 04:36:57;;;;;;;28.13;12.55;;;;;;;;;;6209098;23;20033;-81
2021/12/17 04:39:24;;;;;;;29.27;11.88;;;;;;;;;;6209398;23;20017;-81
2021/12/17 04:57:13;;;;;;;34.13;13.63;;;;;;;;;;6211095;23;20025;-81
2021/12/17 04:57:57;;;;;;;28.13;12.90;;;;;;;;;;6209189;23;20256;-82
2021/12/17 05:00:25;;;;;;;36.72;14.18;;;;;;;;;;6209256;23;20016;-81
2021/12/17 05:02:54;;;;;;;33.13;13.25;;;;;;;;;;6208734;23;20055;-81
2021/12/17 05:05:22;;;;;;;34.65;13.18;;;;;;;;;;6184394;23;20512;-81
2021/12/17 05:08:14;;;;;;;32.80;13.32;;;;;;;;;;6209129;23;20477;-81
2021/12/17 05:18:33;;;;;;;44.03;14.00;;;;;;;;;;6209004;23;20470;-81
2021/12/17 05:21:04;;;;;;;28.45;11.55;;;;;;;;;;6209040;23;20021;-81
2021/12/17 05:23:33;;;;;;;31.15;11.80;;;;;;;;;;6183863;23;20013;-81
2021/12/17 05:26:00;;;;;;;33.00;11.57;;;;;;;;;;6208877;23;20248;-81
2021/12/17 05:28:27;;;;;;;23.08;10.73;;;;;;;;;;6208910;23;20062;-81
2021/12/17 05:30:55;;;;;;;22.70;10.82;;;;;;;;;;6183126;23;20366;-81
2021/12/17 05:33:21;;;;;;;30.25;12.38;;;;;;;;;;6208668;23;20017;-81
2021/12/17 05:35:48;;;;;;;31.17;12.15;;;;;;;;;;6208510;23;20016;-81
2021/12/17 05:38:15;;;;;;;29.52;13.23;;;;;;;;;;6183222;23;20476;-81
2021/12/17 05:40:41;;;;;;;31.52;13.57;;;;;;;;;;6208509;23;20052;-81
2021/12/17 05:43:08;;;;;;;31.58;13.15;;;;;;;;;;6208365;23;20020;-81
2021/12/17 05:45:36;;;;;;;23.52;11.00;;;;;;;;;;6208310;23;20051;-81
2021/12/17 05:48:07;;;;;;;36.95;13.38;;;;;;;;;;6208669;23;20017;-81
2021/12/17 05:50:34;;;;;;;27.80;13.95;;;;;;;;;;6208612;23;20016;-81
2021/12/17 05:53:01;;;;;;;38.90;14.13;;;;;;;;;;6209025;23;20393;-81
2021/12/17 05:55:27;;;;;;;32.70;13.73;;;;;;;;;;6208702;23;20091;-81
2021/12/17 05:57:54;;;;;;;39.15;14.75;;;;;;;;;;6183475;23;20020;-81
2021/12/17 06:00:20;;;;;;;33.47;13.65;;;;;;;;;;6208592;23;20016;-81
2021/12/17 06:02:47;;;;;;;27.10;12.90;;;;;;;;;;6208409;23;20020;-81
2021/12/17 06:05:13;;;;;;;31.50;14.15;;;;;;;;;;6208239;23;20378;-81
2021/12/17 06:07:39;;;;;;;36.53;16.48;;;;;;;;;;6183334;23;20013;-81
2021/12/17 06:10:08;;;;;;;30.17;13.30;;;;;;;;;;6208502;23;20024;-81
2021/12/17 06:12:34;;;;;;;39.70;16.10;;;;;;;;;;6208518;23;20481;-81
2021/12/17 06:15:01;;;;;;;35.58;16.17;;;;;;;;;;6208430;23;20023;-81
2021/12/17 06:17:27;;;;;;;32.97;15.40;;;;;;;;;;6208534;23;20012;-81
2021/12/17 06:19:53;;;;;;;30.85;16.67;;;;;;;;;;6208360;23;20465;-81
2021/12/17 06:22:19;;;;;;;42.08;17.45;;;;;;;;;;6208442;23;20020;-81
2021/12/17 06:24:45;;;;;;;43.65;18.50;;;;;;;;;;6208293;23;20019;-81
2021/12/17 06:27:23;;;;;;;42.38;18.40;;;;;;;;;;6208446;23;20473;-81
2021/12/17 06:29:49;;;;;;;70.05;21.42;;;;;;;;;;6183509;23;20016;-81
2021/12/17 06:32:15;;;;;;;40.08;17.60;;;;;;;;;;6208220;23;20012;-81
2021/12/17 06:34:41;;;;;;;52.58;18.52;;;;;;;;;;6183465;23;20013;-81
2021/12/17 06:37:07;;;;;;;36.83;16.20;;;;;;;;;;6208244;23;20098;-81
2021/12/17 06:39:34;;;;;;;66.30;20.58;;;;;;;;;;6208259;23;20086;-81
2021/12/17 06:42:00;;;;;;;45.83;17.50;;;;;;;;;;6208171;23;20462;-81
2021/12/17 06:44:27;;;;;;;39.47;15.68;;;;;;;;;;6208047;23;20019;-81
2021/12/17 06:47:06;;;;;;;64.70;19.75;;;;;;;;;;6208354;23;20073;-81
2021/12/17 06:49:49;;;;;;;29.80;15.05;;;;;;;;;;6208212;23;20055;-81
2021/12/17 06:55:24;;;;;;;31.38;14.45;;;;;;;;;;6208170;23;20016;-81
2021/12/17 07:06:15;;;;;;;46.85;17.45;;;;;;;;;;6207251;23;20024;-82
2021/12/17 07:11:36;;;;;;;30.63;14.57;;;;;;;;;;6207659;23;20020;-82
2021/12/17 07:22:41;;;;;;;43.95;16.50;;;;;;;;;;6206855;23;20013;-81
2021/12/17 07:28:08;;;;;;;29.08;14.60;;;;;;;;;;6207080;23;20052;-81
2021/12/17 07:35:48;;;;;;;31.52;14.32;;;;;;;;;;6207596;23;20028;-82
2021/12/17 07:40:58;;;;;;;31.85;14.38;;;;;;;;;;6207878;23;20113;-82
2021/12/17 07:43:30;;;;;;;44.85;17.65;;;;;;;;;;6182120;23;20020;-81
2021/12/17 07:45:57;;;;;;;42.17;16.67;;;;;;;;;;6207851;23;20483;-81
2021/12/17 07:48:23;;;;;;;42.72;16.50;;;;;;;;;;6182853;23;20044;-82
2021/12/17 07:50:49;;;;;;;29.73;15.02;;;;;;;;;;6207811;23;20008;-81
2021/12/17 07:53:16;;;;;;;64.40;19.85;;;;;;;;;;6207739;23;20013;-81
2021/12/17 07:55:42;;;;;;;44.47;16.65;;;;;;;;;;6186432;23;20067;-82
2021/12/17 07:58:08;;;;;;;36.38;15.95;;;;;;;;;;6209516;23;20066;-82
2021/12/17 08:00:34;;;;;;;62.75;19.70;;;;;;;;;;6209797;23;20051;-83
2021/12/17 08:03:00;;;;;;;52.42;18.00;;;;;;;;;;6209341;23;20012;-83
2021/12/17 08:05:26;;;;;;;45.42;16.05;;;;;;;;;;6209595;23;20017;-83
2021/12/17 08:07:52;;;;;;;38.10;16.98;;;;;;;;;;6209393;23;20023;-84
2021/12/17 08:10:18;;;;;;;54.15;20.40;;;;;;;;;;6209546;23;20016;-83
2021/12/17 08:12:44;;;;;;;56.03;19.40;;;;;;;;;;6209312;23;20095;-83
2021/12/17 08:15:12;;;;;;;41.55;17.05;;;;;;;;;;6209755;23;20091;-84
2021/12/17 08:26:00;;;;;;;42.30;17.33;;;;;;;;;;6209285;23;20020;-82
2021/12/17 08:28:28;;;;;;;43.13;16.65;;;;;;;;;;6209706;23;20470;-83
2021/12/17 08:30:54;;;;;;;49.42;18.10;;;;;;;;;;6209323;23;20016;-83
2021/12/17 08:33:21;;;;;;;45.50;16.52;;;;;;;;;;6209231;23;20012;-82
2021/12/17 08:35:48;;;;;;;48.10;18.10;;;;;;;;;;6209043;23;20063;-83
2021/12/17 08:38:14;;;;;;;61.67;22.30;;;;;;;;;;6209102;23;20021;-83
2021/12/17 08:40:41;;;;;;;67.28;21.48;;;;;;;;;;6208544;23;20016;-83
2021/12/17 08:43:07;;;;;;;41.08;18.13;;;;;;;;;;6183717;23;20115;-82
2021/12/17 08:45:33;;;;;;;41.55;17.73;;;;;;;;;;6207681;23;20450;-82
2021/12/17 08:47:59;;;;;;;53.72;19.33;;;;;;;;;;6184292;23;20013;-82
2021/12/17 08:50:26;;;;;;;49.90;18.45;;;;;;;;;;6208842;23;20075;-82
2021/12/17 08:52:52;;;;;;;58.65;19.73;;;;;;;;;;6208670;23;20321;-84
2021/12/17 08:55:18;;;;;;;48.72;19.13;;;;;;;;;;6208905;23;20062;-83
2021/12/17 08:57:44;;;;;;;44.65;18.17;;;;;;;;;;6208540;23;20347;-83
2021/12/17 09:00:11;;;;;;;47.80;19.25;;;;;;;;;;6208695;23;20023;-83
2021/12/17 09:02:38;;;;;;;69.32;22.92;;;;;;;;;;6208534;23;20091;-83
2021/12/17 09:05:05;;;;;;;44.25;18.90;;;;;;;;;;6205069;23;20020;-83
2021/12/17 09:07:31;;;;;;;39.75;18.30;;;;;;;;;;6207571;23;20012;-83
2021/12/17 09:09:57;;;;;;;48.92;21.20;;;;;;;;;;6208079;23;20095;-83
2021/12/17 09:12:24;;;;;;;58.83;21.70;;;;;;;;;;6208611;23;20398;-83
2021/12/17 09:14:50;;;;;;;46.13;19.70;;;;;;;;;;6208108;23;20016;-84
2021/12/17 09:17:16;;;;;;;47.03;19.77;;;;;;;;;;6208803;23;20090;-83
2021/12/17 09:19:42;;;;;;;50.65;20.85;;;;;;;;;;6183301;23;20066;-83
2021/12/17 09:22:08;;;;;;;53.53;22.10;;;;;;;;;;6208568;23;20023;-83
2021/12/17 09:24:34;;;;;;;49.38;19.70;;;;;;;;;;6208455;23;20021;-83
2021/12/17 09:27:00;;;;;;;49.28;20.83;;;;;;;;;;6208988;23;20012;-84
2021/12/17 09:29:27;;;;;;;50.13;22.25;;;;;;;;;;6208764;23;20012;-84
2021/12/17 09:31:53;;;;;;;39.83;18.95;;;;;;;;;;6208894;23;20030;-83
2021/12/17 09:34:19;;;;;;;50.05;21.42;;;;;;;;;;6209285;23;20044;-84
2021/12/17 09:36:45;;;;;;;46.38;19.88;;;;;;;;;;6208562;23;20025;-83
2021/12/17 09:39:11;;;;;;;50.13;22.50;;;;;;;;;;6207842;23;20035;-83
2021/12/17 09:41:37;;;;;;;42.38;19.85;;;;;;;;;;6207736;23;20028;-84
2021/12/17 09:44:03;;;;;;;41.15;19.58;;;;;;;;;;6208537;23;20040;-83
2021/12/17 09:46:29;;;;;;;41.75;19.85;;;;;;;;;;6208915;23;20140;-83
2021/12/17 09:48:57;;;;;;;44.40;20.73;;;;;;;;;;6208896;23;20016;-83
2021/12/17 09:51:23;;;;;;;39.55;19.75;;;;;;;;;;6183970;23;20021;-84
2021/12/17 09:53:49;;;;;;;34.10;17.17;;;;;;;;;;6208960;23;20115;-84
2021/12/17 09:56:15;;;;;;;45.78;20.35;;;;;;;;;;6208721;23;20044;-83
2021/12/17 09:58:41;;;;;;;40.92;18.95;;;;;;;;;;6182732;23;20491;-84
2021/12/17 10:01:07;;;;;;;41.63;20.02;;;;;;;;;;6208105;23;20091;-84
2021/12/17 10:03:33;;;;;;;44.47;20.17;;;;;;;;;;6208413;23;20515;-84
2021/12/17 10:05:59;;;;;;;41.50;19.67;;;;;;;;;;6208476;23;20012;-84
2021/12/17 10:08:26;;;;;;;38.53;19.67;;;;;;;;;;6208683;23;20012;-84
2021/12/17 10:10:59;;;;;;;38.42;18.55;;;;;;;;;;6208266;23;20031;-85
2021/12/17 10:13:26;;;;;;;43.47;21.48;;;;;;;;;;6207826;23;20008;-85
2021/12/17 10:15:57;;;;;;;46.03;21.15;;;;;;;;;;6208112;23;20017;-84
2021/12/17 10:18:33;;;;;;;53.40;22.15;;;;;;;;;;6207764;23;20217;-84
2021/12/17 10:21:01;;;;;;;40.35;19.38;;;;;;;;;;6208044;23;20071;-84
2021/12/17 10:23:28;;;;;;;38.40;18.90;;;;;;;;;;6208165;23;20025;-84
2021/12/17 10:25:54;;;;;;;39.97;19.30;;;;;;;;;;6207735;23;20017;-84
2021/12/17 10:28:20;;;;;;;42.83;18.77;;;;;;;;;;6208248;23;20016;-84
2021/12/17 10:30:47;;;;;;;44.30;20.58;;;;;;;;;;6208058;23;20240;-83
2021/12/17 10:33:15;;;;;;;40.35;18.65;;;;;;;;;;6206201;23;20480;-84
2021/12/17 10:35:45;;;;;;;44.00;20.10;;;;;;;;;;6206987;23;20044;-84
2021/12/17 10:38:14;;;;;;;45.10;20.25;;;;;;;;;;6206707;23;20099;-84
2021/12/17 10:40:45;;;;;;;39.88;19.48;;;;;;;;;;6181869;23;20021;-84
2021/12/17 10:43:36;;;;;;;42.47;18.70;;;;;;;;;;6208386;23;20112;-84
2021/12/17 10:49:02;;;;;;;37.63;18.50;;;;;;;;;;6207822;23;20019;-84
2021/12/17 10:54:11;;;;;;;51.03;20.20;;;;;;;;;;6207849;23;20128;-84
2021/12/17 10:56:37;;;;;;;44.28;20.33;;;;;;;;;;6208087;23;20012;-83
2021/12/17 10:59:07;;;;;;;38.88;18.48;;;;;;;;;;6208207;23;20020;-83
2021/12/17 11:01:35;;;;;;;35.72;17.63;;;;;;;;;;6207488;23;20012;-83
2021/12/17 11:04:06;;;;;;;39.47;17.77;;;;;;;;;;6208109;23;20079;-83
2021/12/17 11:06:42;;;;;;;34.70;17.98;;;;;;;;;;6207977;23;20125;-83
2021/12/17 11:09:08;;;;;;;39.47;19.13;;;;;;;;;;6207944;23;20019;-84
2021/12/17 11:11:41;;;;;;;38.55;18.80;;;;;;;;;;6208101;23;20062;-83
2021/12/17 11:14:07;;;;;;;40.97;20.80;;;;;;;;;;6208272;23;20012;-83
2021/12/17 11:16:33;;;;;;;50.42;22.55;;;;;;;;;;6208217;23;20055;-83
2021/12/17 11:18:59;;;;;;;37.20;19.38;;;;;;;;;;6208209;23;20016;-83
2021/12/17 11:21:25;;;;;;;39.17;19.23;;;;;;;;;;6208270;23;20413;-83
2021/12/17 11:23:51;;;;;;;46.67;20.65;;;;;;;;;;6183213;23;20013;-85
2021/12/17 11:26:17;;;;;;;36.45;18.98;;;;;;;;;;6208116;23;20111;-84
2021/12/17 11:28:46;;;;;;;48.30;21.70;;;;;;;;;;6208135;23;20008;-84
2021/12/17 11:31:12;;;;;;;37.35;19.58;;;;;;;;;;6185329;23;20009;-85
2021/12/17 11:33:38;;;;;;;34.25;17.27;;;;;;;;;;6210107;23;20521;-85
2021/12/17 11:36:05;;;;;;;36.60;17.92;;;;;;;;;;6210083;23;20012;-85
2021/12/17 11:38:46;;;;;;;36.13;18.00;;;;;;;;;;6210024;23;20028;-85
2021/12/17 11:41:19;;;;;;;29.52;16.45;;;;;;;;;;6210148;23;20660;-85
2021/12/17 11:43:51;;;;;;;34.63;18.23;;;;;;;;;;6209913;23;20016;-84
2021/12/17 11:46:19;;;;;;;37.90;19.15;;;;;;;;;;6210066;23;20396;-84
2021/12/17 11:48:49;;;;;;;35.00;16.98;;;;;;;;;;6209926;23;20009;-84
2021/12/17 11:51:17;;;;;;;33.50;16.90;;;;;;;;;;6209864;23;20091;-84
2021/12/17 11:53:55;;;;;;;40.95;19.02;;;;;;;;;;6209936;23;20102;-84
2021/12/17 11:56:41;;;;;;;33.10;15.73;;;;;;;;;;6209959;23;20024;-83
2021/12/17 11:59:08;;;;;;;26.70;14.38;;;;;;;;;;6209880;23;20012;-83
2021/12/17 12:01:55;;;;;;;33.13;16.15;;;;;;;;;;6209909;23;20466;-84
2021/12/17 12:04:22;;;;;;;31.17;15.73;;;;;;;;;;6209498;23;20017;-84
2021/12/17 12:07:00;;;;;;;28.70;14.70;;;;;;;;;;6209617;23;20023;-83
2021/12/17 12:09:45;;;;;;;24.10;13.35;;;;;;;;;;6209843;23;20017;-83
2021/12/17 12:12:11;;;;;;;23.50;12.25;;;;;;;;;;6184708;23;20012;-83
2021/12/17 12:14:37;;;;;;;19.38;9.70;;;;;;;;;;6210044;23;20482;-84
2021/12/17 12:17:03;;;;;;;19.35;10.45;;;;;;;;;;6209002;23;20095;-84
2021/12/17 12:19:48;;;;;;;29.80;12.85;;;;;;;;;;6209608;23;20068;-84
2021/12/17 12:22:14;;;;;;;22.20;10.93;;;;;;;;;;6209579;23;20019;-84
2021/12/17 12:24:41;;;;;;;19.33;10.02;;;;;;;;;;6209453;23;20012;-84
2021/12/17 12:27:26;;;;;;;15.85;9.15;;;;;;;;;;6209672;23;20409;-83
2021/12/17 12:29:56;;;;;;;15.48;8.70;;;;;;;;;;6209571;23;20015;-84
2021/12/17 12:32:23;;;;;;;17.80;9.45;;;;;;;;;;6184900;23;20013;-84
2021/12/17 12:34:50;;;;;;;12.45;6.53;;;;;;;;;;6207884;23;20016;-85
2021/12/17 12:37:22;;;;;;;11.57;6.20;;;;;;;;;;6208681;23;20051;-84
2021/12/17 12:39:55;;;;;;;13.02;6.80;;;;;;;;;;6208340;23;20400;-84
2021/12/17 12:42:32;;;;;;;11.60;5.68;;;;;;;;;;6209458;23;20023;-84
2021/12/17 12:44:58;;;;;;;10.18;5.40;;;;;;;;;;6208966;23;20079;-84
2021/12/17 12:47:25;;;;;;;12.18;5.93;;;;;;;;;;6184063;23;20042;-84
2021/12/17 12:50:06;;;;;;;10.45;5.38;;;;;;;;;;6184362;23;20012;-84
2021/12/17 12:52:32;;;;;;;10.52;5.10;;;;;;;;;;6208939;23;20015;-83
2021/12/17 12:54:58;;;;;;;8.77;4.50;;;;;;;;;;6208999;23;20024;-84
2021/12/17 12:57:39;;;;;;;8.65;4.65;;;;;;;;;;6184243;23;20017;-84
2021/12/17 13:00:11;;;;;;;8.30;4.10;;;;;;;;;;6183782;23;20450;-84
2021/12/17 13:02:37;;;;;;;7.53;3.60;;;;;;;;;;6208419;23;20166;-84
2021/12/17 13:05:06;;;;;;;7.53;3.80;;;;;;;;;;6184079;23;20016;-86
2021/12/17 13:07:36;;;;;;;8.18;3.58;;;;;;;;;;6208796;23;20019;-84
2021/12/17 13:10:07;;;;;;;7.60;3.55;;;;;;;;;;6183833;23;20046;-83
2021/12/17 13:12:35;;;;;;;9.07;4.32;;;;;;;;;;6208768;23;20016;-85
2021/12/17 13:15:16;;;;;;;7.43;3.40;;;;;;;;;;6208597;23;20469;-86
2021/12/17 13:20:16;;;;;;;5.70;3.08;;;;;;;;;;6208104;23;20208;-84
2021/12/17 13:20:56;;;;;;;7.68;3.45;;;;;;;;;;6208468;23;20020;-84
2021/12/17 13:23:22;;;;;;;;;;;;;;;;;;6209601;23;20016;-83
2021/12/17 13:26:07;;;;;;;9.00;4.50;;;;;;;;;;6208710;23;19994;-85
2021/12/17 13:28:52;;;;;;;9.00;5.03;;;;;;;;;;6208588;23;20489;-84
2021/12/17 13:31:38;;;;;;;9.00;4.90;;;;;;;;;;6208467;23;20014;-85
2021/12/17 13:34:28;;;;;;;7.95;4.70;;;;;;;;;;6183315;23;20012;-84
2021/12/17 13:36:54;;;;;;;10.35;5.20;;;;;;;;;;6193173;23;20412;-85
2021/12/17 13:39:21;;;;;;;12.55;5.90;;;;;;;;;;6208489;23;20012;-84
2021/12/17 13:41:47;;;;;;;9.45;5.28;;;;;;;;;;6208431;23;20017;-85
2021/12/17 13:44:24;;;;;;;12.52;6.07;;;;;;;;;;6208536;23;20036;-85
2021/12/17 13:46:50;;;;;;;12.20;6.05;;;;;;;;;;6183162;23;20009;-85
2021/12/17 13:49:16;;;;;;;11.43;6.53;;;;;;;;;;6183678;23;20267;-85
2021/12/17 13:51:43;;;;;;;9.82;5.75;;;;;;;;;;6208015;23;20349;-85
2021/12/17 13:54:09;;;;;;;11.27;6.25;;;;;;;;;;6182947;23;20088;-85
2021/12/17 13:56:35;;;;;;;10.50;6.30;;;;;;;;;;6208354;23;20017;-85
2021/12/17 13:59:01;;;;;;;11.98;6.28;;;;;;;;;;6208463;23;20067;-85
2021/12/17 14:01:27;;;;;;;14.52;7.38;;;;;;;;;;6207958;23;20013;-85
2021/12/17 14:03:53;;;;;;;12.90;6.88;;;;;;;;;;6208432;23;20099;-84
2021/12/17 14:06:35;;;;;;;15.30;7.53;;;;;;;;;;6208031;23;20012;-85
2021/12/17 14:09:01;;;;;;;12.85;6.65;;;;;;;;;;6208251;23;20015;-85
2021/12/17 14:11:30;;;;;;;12.63;7.28;;;;;;;;;;6208274;23;20012;-85
2021/12/17 14:13:56;;;;;;;16.30;9.20;;;;;;;;;;6208716;23;20009;-84
2021/12/17 14:16:30;;;;;;;12.85;7.43;;;;;;;;;;6208026;23;20020;-85
2021/12/17 14:18:57;;;;;;;12.52;6.93;;;;;;;;;;6183115;23;20643;-85
2021/12/17 14:21:27;;;;;;;11.88;6.97;;;;;;;;;;6208156;23;20358;-85
2021/12/17 14:23:53;;;;;;;12.05;7.55;;;;;;;;;;6207810;23;20019;-85
2021/12/17 14:26:26;;;;;;;11.77;6.43;;;;;;;;;;6183376;23;20445;-84
2021/12/17 14:28:52;;;;;;;13.73;7.30;;;;;;;;;;6207525;23;20012;-84
2021/12/17 14:31:18;;;;;;;12.02;6.85;;;;;;;;;;6182188;23;20434;-84
2021/12/17 14:33:48;;;;;;;12.27;7.07;;;;;;;;;;6182982;23;20059;-85
2021/12/17 14:36:15;;;;;;;11.35;6.47;;;;;;;;;;6182733;23;20039;-85
2021/12/17 14:38:45;;;;;;;13.75;7.05;;;;;;;;;;6207216;23;20031;-84
2021/12/17 14:41:12;;;;;;;11.55;6.70;;;;;;;;;;6206963;23;20032;-85
2021/12/17 14:43:42;;;;;;;11.07;6.57;;;;;;;;;;6207318;23;20117;-85
2021/12/17 14:46:18;;;;;;;11.15;6.95;;;;;;;;;;6204282;23;20118;-85
2021/12/17 14:48:57;;;;;;;16.55;8.57;;;;;;;;;;6207192;23;20092;-85
2021/12/17 15:04:37;;;;;;;11.50;6.82;;;;;;;;;;6208024;23;20358;-85
2021/12/17 15:07:04;;;;;;;14.48;7.68;;;;;;;;;;6209421;23;20008;-84
2021/12/17 15:09:32;;;;;;;14.85;8.43;;;;;;;;;;6207498;23;20012;-85
2021/12/17 15:12:00;;;;;;;14.27;7.85;;;;;;;;;;6207924;23;20016;-85
2021/12/17 15:14:26;;;;;;;16.80;9.20;;;;;;;;;;6208322;23;20016;-85
2021/12/17 15:16:53;;;;;;;16.02;8.10;;;;;;;;;;6207907;23;20021;-86
2021/12/17 15:19:19;;;;;;;13.73;7.75;;;;;;;;;;6207811;23;20350;-86
2021/12/17 15:21:45;;;;;;;14.40;8.73;;;;;;;;;;6182975;23;20024;-86
2021/12/17 15:24:11;;;;;;;14.48;8.27;;;;;;;;;;6182948;23;20016;-86
2021/12/17 15:26:37;;;;;;;17.50;8.80;;;;;;;;;;6207884;23;20469;-86
2021/12/17 15:29:03;;;;;;;13.63;8.25;;;;;;;;;;6182788;23;20400;-86
2021/12/17 15:31:29;;;;;;;15.68;8.63;;;;;;;;;;6182407;23;20015;-86
2021/12/17 15:33:55;;;;;;;13.85;7.82;;;;;;;;;;6183059;23;20013;-86
2021/12/17 15:36:21;;;;;;;13.15;7.78;;;;;;;;;;6207744;23;20020;-86
2021/12/17 15:38:47;;;;;;;16.75;8.60;;;;;;;;;;6207903;23;20021;-86
2021/12/17 15:41:13;;;;;;;16.17;9.27;;;;;;;;;;6208123;23;20048;-87
2021/12/17 15:43:39;;;;;;;15.65;8.43;;;;;;;;;;6207864;23;20092;-84
2021/12/17 15:46:05;;;;;;;17.00;10.27;;;;;;;;;;6207968;23;20377;-86
2021/12/17 15:48:31;;;;;;;16.70;10.15;;;;;;;;;;6207848;23;20015;-85
2021/12/17 15:50:57;;;;;;;17.70;10.13;;;;;;;;;;6207592;23;20008;-85
2021/12/17 15:53:23;;;;;;;187.98;92.03;;;;;;;;;;6207634;23;20009;-85
2021/12/17 15:55:49;;;;;;;171.52;74.78;;;;;;;;;;6207403;23;20030;-85
2021/12/17 15:58:15;;;;;;;34.83;18.08;;;;;;;;;;6207402;23;20016;-85
2021/12/17 16:00:41;;;;;;;25.83;13.15;;;;;;;;;;6207725;23;20012;-85
2021/12/17 16:03:08;;;;;;;20.17;11.60;;;;;;;;;;6182563;23;20418;-85
2021/12/17 16:05:35;;;;;;;16.85;10.18;;;;;;;;;;6207130;23;20505;-85
2021/12/17 16:08:01;;;;;;;19.63;11.35;;;;;;;;;;6205599;23;20031;-85
2021/12/17 16:18:46;;;;;;;21.98;13.60;;;;;;;;;;6209073;23;20107;-86
2021/12/17 16:21:12;;;;;;;19.67;11.10;;;;;;;;;;6183463;23;20397;-85
2021/12/17 16:23:40;;;;;;;20.27;13.00;;;;;;;;;;6209170;23;20478;-86
2021/12/17 16:26:07;;;;;;;28.55;15.18;;;;;;;;;;6208728;23;20021;-85
2021/12/17 16:28:35;;;;;;;17.58;11.05;;;;;;;;;;6208682;23;20024;-86
2021/12/17 16:31:04;;;;;;;20.27;11.90;;;;;;;;;;6209045;23;20087;-86
2021/12/17 16:33:30;;;;;;;24.15;13.02;;;;;;;;;;6208651;23;20346;-85
2021/12/17 16:35:59;;;;;;;23.55;12.98;;;;;;;;;;6207896;23;20020;-85
2021/12/17 16:38:25;;;;;;;18.52;10.38;;;;;;;;;;6183452;23;20458;-85
2021/12/17 16:40:51;;;;;;;23.05;11.15;;;;;;;;;;6208599;23;20024;-86
2021/12/17 16:43:17;;;;;;;18.35;11.05;;;;;;;;;;6209000;23;20419;-85
2021/12/17 16:46:02;;;;;;;23.33;13.05;;;;;;;;;;6207326;23;20075;-84
2021/12/17 16:48:28;;;;;;;25.33;14.63;;;;;;;;;;6208909;23;20401;-84
2021/12/17 16:50:54;;;;;;;23.00;14.25;;;;;;;;;;6208662;23;20079;-84
2021/12/17 16:53:20;;;;;;;29.38;16.08;;;;;;;;;;6208868;23;20012;-84
2021/12/17 16:55:46;;;;;;;21.65;13.80;;;;;;;;;;6209060;23;20520;-84
2021/12/17 16:58:12;;;;;;;24.25;14.95;;;;;;;;;;6209294;23;20023;-85
2021/12/17 17:00:38;;;;;;;22.50;13.50;;;;;;;;;;6209091;23;20026;-85
2021/12/17 17:03:04;;;;;;;22.45;13.55;;;;;;;;;;6209228;23;20012;-85
2021/12/17 17:05:32;;;;;;;23.58;13.75;;;;;;;;;;6208317;23;20047;-85
2021/12/17 17:07:58;;;;;;;27.42;14.70;;;;;;;;;;6209214;23;20017;-86
2021/12/17 17:10:29;;;;;;;25.40;13.65;;;;;;;;;;6208799;23;20008;-85
2021/12/17 17:12:59;;;;;;;24.90;11.95;;;;;;;;;;6208720;23;20381;-86
2021/12/17 17:15:26;;;;;;;19.75;9.85;;;;;;;;;;6208912;23;20387;-85
2021/12/17 17:17:53;;;;;;;17.25;9.45;;;;;;;;;;6208666;23;20020;-85
2021/12/17 17:20:19;;;;;;;19.90;9.68;;;;;;;;;;6183671;23;20100;-85
2021/12/17 17:22:45;;;;;;;21.75;9.90;;;;;;;;;;6183610;23;20048;-86
2021/12/17 17:25:11;;;;;;;13.25;6.30;;;;;;;;;;6208312;23;20348;-85
2021/12/17 17:27:38;;;;;;;11.48;5.22;;;;;;;;;;6208589;23;20074;-87
2021/12/17 17:30:05;;;;;;;20.00;14.07;;;;;;;;;;6183465;23;20084;-86
2021/12/17 17:32:33;;;;;;;10.32;5.20;;;;;;;;;;6208868;23;20471;-86